sensor_id;sensor_type;location;lat;lon;timestamp;pressure;altitude;pressure_sealevel;temperature;humidity
71643;BME280;59438;45.014;39.006;2022-08-01T00:00:26;100322.56;;;26.32;49.11
71643;BME280;59438;45.014;39.006;2022-08-01T00:02:53;100316.84;;;26.27;49.56
71643;BME280;59438;45.014;39.006;2022-08-01T00:05:19;100313.00;;;26.22;49.28
71643;BME280;59438;45.014;39.006;2022-08-01T00:07:45;100312.63;;;26.17;49.28
71643;BME280;59438;45.014;39.006;2022-08-01T00:10:15;100318.53;;;26.12;50.17
71643;BME280;59438;45.014;39.006;2022-08-01T00:12:43;100308.78;;;26.03;49.88
71643;BME280;59438;45.014;39.006;2022-08-01T00:15:12;100320.38;;;26.03;49.86
71643;BME280;59438;45.014;39.006;2022-08-01T00:17:39;100315.66;;;25.97;49.86
71643;BME280;59438;45.014;39.006;2022-08-01T00:20:10;100315.16;;;25.93;50.54
71643;BME280;59438;45.014;39.006;2022-08-01T00:22:36;100308.41;;;25.89;50.15
71643;BME280;59438;45.014;39.006;2022-08-01T00:25:05;100304.69;;;25.82;51.02
71643;BME280;59438;45.014;39.006;2022-08-01T00:27:33;100304.00;;;25.80;50.95
71643;BME280;59438;45.014;39.006;2022-08-01T00:29:59;100299.97;;;25.76;50.90
71643;BME280;59438;45.014;39.006;2022-08-01T00:32:25;100302.00;;;25.74;50.97
71643;BME280;59438;45.014;39.006;2022-08-01T00:34:52;100307.84;;;25.69;51.40
71643;BME280;59438;45.014;39.006;2022-08-01T00:37:18;100303.63;;;25.67;51.31
71643;BME280;59438;45.014;39.006;2022-08-01T00:39:44;100312.06;;;25.64;51.86
71643;BME280;59438;45.014;39.006;2022-08-01T00:42:11;100308.69;;;25.62;51.63
71643;BME280;59438;45.014;39.006;2022-08-01T00:44:40;100311.69;;;25.59;52.97
71643;BME280;59438;45.014;39.006;2022-08-01T00:47:06;100308.31;;;25.57;52.27
71643;BME280;59438;45.014;39.006;2022-08-01T00:49:33;100316.72;;;25.53;52.61
71643;BME280;59438;45.014;39.006;2022-08-01T00:52:00;100315.19;;;25.51;53.03
71643;BME280;59438;45.014;39.006;2022-08-01T00:54:28;100300.22;;;25.48;53.53
71643;BME280;59438;45.014;39.006;2022-08-01T00:56:54;100309.47;;;25.46;53.63
71643;BME280;59438;45.014;39.006;2022-08-01T00:59:22;100311.47;;;25.44;53.91
71643;BME280;59438;45.014;39.006;2022-08-01T01:01:50;100312.66;;;25.41;53.91
71643;BME280;59438;45.014;39.006;2022-08-01T01:04:16;100308.41;;;25.39;54.14
71643;BME280;59438;45.014;39.006;2022-08-01T01:06:51;100320.34;;;25.36;55.29
71643;BME280;59438;45.014;39.006;2022-08-01T01:09:29;100322.50;;;25.32;55.74
71643;BME280;59438;45.014;39.006;2022-08-01T01:12:04;100322.84;;;25.29;56.18
71643;BME280;59438;45.014;39.006;2022-08-01T01:14:38;100332.59;;;25.30;56.14
71643;BME280;59438;45.014;39.006;2022-08-01T01:17:09;100328.38;;;25.28;56.26
71643;BME280;59438;45.014;39.006;2022-08-01T01:19:41;100329.56;;;25.25;56.48
71643;BME280;59438;45.014;39.006;2022-08-01T01:22:22;100323.66;;;25.22;56.43
71643;BME280;59438;45.014;39.006;2022-08-01T01:25:02;100322.94;;;25.20;56.49
71643;BME280;59438;45.014;39.006;2022-08-01T01:27:39;100329.03;;;25.22;56.85
71643;BME280;59438;45.014;39.006;2022-08-01T01:30:12;100323.94;;;25.19;57.27
71643;BME280;59438;45.014;39.006;2022-08-01T01:32:41;100324.94;;;25.18;57.27
71643;BME280;59438;45.014;39.006;2022-08-01T01:35:09;100322.09;;;25.19;55.90
71643;BME280;59438;45.014;39.006;2022-08-01T01:37:38;100315.50;;;25.13;57.12
71643;BME280;59438;45.014;39.006;2022-08-01T01:40:06;100321.91;;;25.12;56.83
71643;BME280;59438;45.014;39.006;2022-08-01T01:42:34;100324.75;;;25.11;57.11
71643;BME280;59438;45.014;39.006;2022-08-01T01:45:04;100327.59;;;25.09;57.55
71643;BME280;59438;45.014;39.006;2022-08-01T01:47:33;100331.28;;;25.08;57.84
71643;BME280;59438;45.014;39.006;2022-08-01T01:50:01;100335.81;;;25.08;57.49
71643;BME280;59438;45.014;39.006;2022-08-01T01:52:29;100339.50;;;25.07;57.71
71643;BME280;59438;45.014;39.006;2022-08-01T01:54:57;100334.13;;;25.07;57.72
71643;BME280;59438;45.014;39.006;2022-08-01T01:57:25;100346.56;;;25.08;57.96
71643;BME280;59438;45.014;39.006;2022-08-01T01:59:54;100345.72;;;25.07;57.92
71643;BME280;59438;45.014;39.006;2022-08-01T02:02:22;100348.56;;;25.06;57.89
71643;BME280;59438;45.014;39.006;2022-08-01T02:04:52;100354.59;;;25.08;58.35
71643;BME280;59438;45.014;39.006;2022-08-01T02:07:22;100349.56;;;25.05;57.89
71643;BME280;59438;45.014;39.006;2022-08-01T02:09:51;100352.25;;;25.05;57.89
71643;BME280;59438;45.014;39.006;2022-08-01T02:12:19;100349.56;;;25.05;57.72
71643;BME280;59438;45.014;39.006;2022-08-01T02:14:47;100354.94;;;25.05;57.68
71643;BME280;59438;45.014;39.006;2022-08-01T02:17:16;100354.41;;;25.01;58.01
71643;BME280;59438;45.014;39.006;2022-08-01T02:19:43;100352.41;;;25.03;57.68
71643;BME280;59438;45.014;39.006;2022-08-01T02:22:15;100363.31;;;25.02;58.55
71643;BME280;59438;45.014;39.006;2022-08-01T02:24:48;100364.16;;;25.02;58.05
71643;BME280;59438;45.014;39.006;2022-08-01T02:27:17;100364.16;;;25.02;57.74
71643;BME280;59438;45.014;39.006;2022-08-01T02:29:52;100353.72;;;24.99;58.34
71643;BME280;59438;45.014;39.006;2022-08-01T02:32:31;100364.47;;;24.99;57.85
71643;BME280;59438;45.014;39.006;2022-08-01T02:34:57;100362.97;;;24.97;57.41
71643;BME280;59438;45.014;39.006;2022-08-01T02:37:30;100363.09;;;24.95;58.33
71643;BME280;59438;45.014;39.006;2022-08-01T02:40:00;100359.75;;;24.93;58.11
71643;BME280;59438;45.014;39.006;2022-08-01T02:42:27;100367.78;;;24.93;58.16
71643;BME280;59438;45.014;39.006;2022-08-01T02:44:55;100361.75;;;24.91;57.55
71643;BME280;59438;45.014;39.006;2022-08-01T02:47:23;100356.38;;;24.91;57.73
71643;BME280;59438;45.014;39.006;2022-08-01T02:49:52;100362.75;;;24.90;57.83
71643;BME280;59438;45.014;39.006;2022-08-01T02:52:21;100362.91;;;24.88;57.61
71643;BME280;59438;45.014;39.006;2022-08-01T02:54:53;100364.44;;;24.91;58.53
71643;BME280;59438;45.014;39.006;2022-08-01T02:57:21;100369.66;;;24.92;57.67
71643;BME280;59438;45.014;39.006;2022-08-01T02:59:49;100382.25;;;24.92;57.75
71643;BME280;59438;45.014;39.006;2022-08-01T03:02:17;100384.09;;;24.91;57.97
71643;BME280;59438;45.014;39.006;2022-08-01T03:04:45;100387.63;;;24.92;57.65
71643;BME280;59438;45.014;39.006;2022-08-01T03:07:12;100384.78;;;24.93;57.71
71643;BME280;59438;45.014;39.006;2022-08-01T03:09:42;100377.03;;;24.90;58.26
71643;BME280;59438;45.014;39.006;2022-08-01T03:12:13;100375.84;;;24.93;58.04
71643;BME280;59438;45.014;39.006;2022-08-01T03:14:42;100380.94;;;24.96;58.29
71643;BME280;59438;45.014;39.006;2022-08-01T03:17:09;100379.91;;;24.97;57.74
71643;BME280;59438;45.014;39.006;2022-08-01T03:19:36;100389.50;;;25.00;58.08
71643;BME280;59438;45.014;39.006;2022-08-01T03:22:06;100389.00;;;24.96;58.45
71643;BME280;59438;45.014;39.006;2022-08-01T03:24:34;100389.19;;;25.03;58.18
71643;BME280;59438;45.014;39.006;2022-08-01T03:27:03;100384.66;;;25.03;57.82
71643;BME280;59438;45.014;39.006;2022-08-01T03:29:33;100390.72;;;25.05;58.19
71643;BME280;59438;45.014;39.006;2022-08-01T03:32:00;100386.03;;;25.07;58.02
71643;BME280;59438;45.014;39.006;2022-08-01T03:34:27;100378.63;;;25.09;58.12
71643;BME280;59438;45.014;39.006;2022-08-01T03:36:58;100375.97;;;25.09;58.47
71643;BME280;59438;45.014;39.006;2022-08-01T03:39:29;100374.09;;;25.10;58.10
71643;BME280;59438;45.014;39.006;2022-08-01T03:42:01;100371.66;;;25.17;58.61
71643;BME280;59438;45.014;39.006;2022-08-01T03:44:33;100374.00;;;25.20;58.11
71643;BME280;59438;45.014;39.006;2022-08-01T03:47:05;100375.53;;;25.22;58.28
71643;BME280;59438;45.014;39.006;2022-08-01T03:49:35;100375.41;;;25.24;57.69
71643;BME280;59438;45.014;39.006;2022-08-01T03:52:05;100375.25;;;25.25;57.87
71643;BME280;59438;45.014;39.006;2022-08-01T03:54:35;100375.25;;;25.25;58.23
71643;BME280;59438;45.014;39.006;2022-08-01T03:57:02;100386.19;;;25.32;58.03
71643;BME280;59438;45.014;39.006;2022-08-01T03:59:32;100376.13;;;25.34;58.55
71643;BME280;59438;45.014;39.006;2022-08-01T04:02:00;100376.66;;;25.38;58.39
71643;BME280;59438;45.014;39.006;2022-08-01T04:04:28;100378.00;;;25.42;58.05
71643;BME280;59438;45.014;39.006;2022-08-01T04:06:55;100377.84;;;25.43;58.06
71643;BME280;59438;45.014;39.006;2022-08-01T04:09:21;100373.16;;;25.45;58.27
71643;BME280;59438;45.014;39.006;2022-08-01T04:11:48;100374.69;;;25.48;58.13
71643;BME280;59438;45.014;39.006;2022-08-01T04:14:15;100367.13;;;25.51;58.59
71643;BME280;59438;45.014;39.006;2022-08-01T04:16:43;100363.28;;;25.54;58.48
71643;BME280;59438;45.014;39.006;2022-08-01T04:19:09;100360.25;;;25.57;58.36
71643;BME280;59438;45.014;39.006;2022-08-01T04:21:36;100356.41;;;25.60;58.35
71643;BME280;59438;45.014;39.006;2022-08-01T04:24:06;100364.28;;;25.61;59.42
71643;BME280;59438;45.014;39.006;2022-08-01T04:26:32;100353.56;;;25.69;58.09
71643;BME280;59438;45.014;39.006;2022-08-01T04:29:02;100360.78;;;25.69;58.72
71643;BME280;59438;45.014;39.006;2022-08-01T04:31:30;100364.00;;;25.72;58.70
71643;BME280;59438;45.014;39.006;2022-08-01T04:33:59;100353.94;;;25.74;59.20
71643;BME280;59438;45.014;39.006;2022-08-01T04:36:27;100367.56;;;25.81;58.36
71643;BME280;59438;45.014;39.006;2022-08-01T04:38:57;100362.16;;;25.81;59.27
71643;BME280;59438;45.014;39.006;2022-08-01T04:41:25;100371.75;;;25.84;59.30
71643;BME280;59438;45.014;39.006;2022-08-01T04:43:52;100359.84;;;25.86;59.29
71643;BME280;59438;45.014;39.006;2022-08-01T04:46:19;100360.53;;;25.88;59.51
71643;BME280;59438;45.014;39.006;2022-08-01T04:48:45;100361.91;;;25.92;59.60
71643;BME280;59438;45.014;39.006;2022-08-01T04:51:14;100359.56;;;25.98;60.44
71643;BME280;59438;45.014;39.006;2022-08-01T04:53:41;100358.22;;;26.02;60.19
71643;BME280;59438;45.014;39.006;2022-08-01T04:56:07;100359.41;;;26.07;60.23
71643;BME280;59438;45.014;39.006;2022-08-01T04:58:33;100372.34;;;26.12;60.41
71643;BME280;59438;45.014;39.006;2022-08-01T05:01:00;100365.47;;;26.18;60.64
71643;BME280;59438;45.014;39.006;2022-08-01T05:03:26;100362.28;;;26.22;60.77
71643;BME280;59438;45.014;39.006;2022-08-01T05:05:52;100364.31;;;26.28;60.80
71643;BME280;59438;45.014;39.006;2022-08-01T05:08:20;100362.59;;;26.36;61.24
71643;BME280;59438;45.014;39.006;2022-08-01T05:10:47;100369.19;;;26.41;60.92
71643;BME280;59438;45.014;39.006;2022-08-01T05:13:13;100364.16;;;26.46;61.21
71643;BME280;59438;45.014;39.006;2022-08-01T05:15:39;100364.31;;;26.53;61.39
71643;BME280;59438;45.014;39.006;2022-08-01T05:18:05;100363.66;;;26.59;61.13
71643;BME280;59438;45.014;39.006;2022-08-01T05:20:32;100372.06;;;26.64;61.22
71643;BME280;59438;45.014;39.006;2022-08-01T05:22:58;100365.16;;;26.70;61.18
71643;BME280;59438;45.014;39.006;2022-08-01T05:25:26;100369.69;;;26.78;61.53
71643;BME280;59438;45.014;39.006;2022-08-01T05:27:52;100365.50;;;26.83;61.43
71643;BME280;59438;45.014;39.006;2022-08-01T05:30:18;100357.72;;;26.88;61.04
71643;BME280;59438;45.014;39.006;2022-08-01T05:32:45;100362.41;;;26.94;61.33
71643;BME280;59438;45.014;39.006;2022-08-01T05:35:11;100363.59;;;27.00;61.16
71643;BME280;59438;45.014;39.006;2022-08-01T05:37:38;100360.88;;;27.08;61.29
71643;BME280;59438;45.014;39.006;2022-08-01T05:40:05;100361.69;;;27.17;61.33
71643;BME280;59438;45.014;39.006;2022-08-01T05:42:33;100362.53;;;27.26;61.51
71643;BME280;59438;45.014;39.006;2022-08-01T05:44:59;100357.78;;;27.36;61.58
71643;BME280;59438;45.014;39.006;2022-08-01T05:47:26;100356.38;;;27.48;61.65
71643;BME280;59438;45.014;39.006;2022-08-01T05:49:52;100361.41;;;27.60;61.62
71643;BME280;59438;45.014;39.006;2022-08-01T05:52:19;100358.78;;;27.74;61.40
71643;BME280;59438;45.014;39.006;2022-08-01T05:54:45;100365.50;;;27.87;61.32
71643;BME280;59438;45.014;39.006;2022-08-01T05:57:11;100356.78;;;28.00;61.42
71643;BME280;59438;45.014;39.006;2022-08-01T05:59:39;100351.44;;;28.14;61.32
71643;BME280;59438;45.014;39.006;2022-08-01T06:02:06;100360.81;;;28.27;60.70
71643;BME280;59438;45.014;39.006;2022-08-01T06:04:32;100346.72;;;28.40;60.51
71643;BME280;59438;45.014;39.006;2022-08-01T06:06:58;100349.19;;;28.49;60.35
71643;BME280;59438;45.014;39.006;2022-08-01T06:09:25;100346.22;;;28.59;60.03
71643;BME280;59438;45.014;39.006;2022-08-01T06:11:51;100347.19;;;28.66;60.27
71643;BME280;59438;45.014;39.006;2022-08-01T06:14:17;100346.44;;;28.72;59.62
71643;BME280;59438;45.014;39.006;2022-08-01T06:16:45;100340.50;;;28.77;59.62
71643;BME280;59438;45.014;39.006;2022-08-01T06:19:11;100344.31;;;28.83;59.74
71643;BME280;59438;45.014;39.006;2022-08-01T06:21:38;100346.47;;;28.87;58.95
71643;BME280;59438;45.014;39.006;2022-08-01T06:24:04;100345.25;;;28.90;58.94
71643;BME280;59438;45.014;39.006;2022-08-01T06:26:31;100342.16;;;28.93;58.90
71643;BME280;59438;45.014;39.006;2022-08-01T06:28:57;100346.38;;;28.96;58.65
71643;BME280;59438;45.014;39.006;2022-08-01T06:31:24;100343.69;;;28.96;59.00
71643;BME280;59438;45.014;39.006;2022-08-01T06:33:52;100345.63;;;29.02;58.72
71643;BME280;59438;45.014;39.006;2022-08-01T06:36:18;100339.19;;;29.03;58.89
71643;BME280;59438;45.014;39.006;2022-08-01T06:38:44;100340.88;;;29.04;58.39
71643;BME280;59438;45.014;39.006;2022-08-01T06:41:10;100346.06;;;29.05;58.46
71643;BME280;59438;45.014;39.006;2022-08-01T06:43:37;100331.56;;;29.06;58.16
71643;BME280;59438;45.014;39.006;2022-08-01T06:46:04;100328.84;;;29.06;58.08
71643;BME280;59438;45.014;39.006;2022-08-01T06:48:30;100337.78;;;29.07;58.63
71643;BME280;59438;45.014;39.006;2022-08-01T06:50:58;100342.38;;;29.06;58.65
71643;BME280;59438;45.014;39.006;2022-08-01T06:53:24;100326.97;;;29.07;58.51
71643;BME280;59438;45.014;39.006;2022-08-01T06:55:51;100325.31;;;29.06;58.23
71643;BME280;59438;45.014;39.006;2022-08-01T06:58:17;100336.78;;;29.08;57.94
71643;BME280;59438;45.014;39.006;2022-08-01T07:00:43;100325.97;;;29.08;58.51
71643;BME280;59438;45.014;39.006;2022-08-01T07:03:09;100330.19;;;29.10;58.37
71643;BME280;59438;45.014;39.006;2022-08-01T07:05:36;100327.47;;;29.10;58.09
71643;BME280;59438;45.014;39.006;2022-08-01T07:08:04;100330.00;;;29.12;58.07
71643;BME280;59438;45.014;39.006;2022-08-01T07:10:30;100328.13;;;29.12;57.97
71643;BME280;59438;45.014;39.006;2022-08-01T07:12:57;100324.38;;;29.13;58.45
71643;BME280;59438;45.014;39.006;2022-08-01T07:15:23;100321.69;;;29.13;58.49
71643;BME280;59438;45.014;39.006;2022-08-01T07:17:49;100326.72;;;29.17;58.55
71643;BME280;59438;45.014;39.006;2022-08-01T07:20:16;100333.81;;;29.18;57.96
71643;BME280;59438;45.014;39.006;2022-08-01T07:22:42;100333.44;;;29.21;57.88
71643;BME280;59438;45.014;39.006;2022-08-01T07:25:10;100333.25;;;29.22;58.29
71643;BME280;59438;45.014;39.006;2022-08-01T07:27:37;100331.00;;;29.26;58.24
71643;BME280;59438;45.014;39.006;2022-08-01T07:30:04;100337.06;;;29.28;57.83
71643;BME280;59438;45.014;39.006;2022-08-01T07:32:31;100325.88;;;29.31;57.97
71643;BME280;59438;45.014;39.006;2022-08-01T07:34:57;100333.59;;;29.34;58.13
71643;BME280;59438;45.014;39.006;2022-08-01T07:37:23;100325.13;;;29.37;58.29
71643;BME280;59438;45.014;39.006;2022-08-01T07:39:50;100328.28;;;29.41;57.77
71643;BME280;59438;45.014;39.006;2022-08-01T07:42:18;100329.59;;;29.45;58.37
71643;BME280;59438;45.014;39.006;2022-08-01T07:44:44;100331.72;;;29.49;57.74
71643;BME280;59438;45.014;39.006;2022-08-01T07:47:10;100337.78;;;29.51;58.29
71643;BME280;59438;45.014;39.006;2022-08-01T07:49:37;100324.72;;;29.55;57.69
71643;BME280;59438;45.014;39.006;2022-08-01T07:52:03;100327.88;;;29.59;57.47
71643;BME280;59438;45.014;39.006;2022-08-01T07:54:30;100327.50;;;29.62;57.19
71643;BME280;59438;45.014;39.006;2022-08-01T07:56:56;100326.28;;;29.64;57.61
71643;BME280;59438;45.014;39.006;2022-08-01T07:59:24;100328.63;;;29.67;57.79
71643;BME280;59438;45.014;39.006;2022-08-01T08:01:50;100326.38;;;29.71;57.24
71643;BME280;59438;45.014;39.006;2022-08-01T08:04:17;100330.38;;;29.75;57.25
71643;BME280;59438;45.014;39.006;2022-08-01T08:06:43;100328.13;;;29.79;57.01
71643;BME280;59438;45.014;39.006;2022-08-01T08:09:09;100322.34;;;29.82;57.10
71643;BME280;59438;45.014;39.006;2022-08-01T08:11:36;100321.75;;;29.86;57.13
71643;BME280;59438;45.014;39.006;2022-08-01T08:14:02;100316.81;;;29.90;56.69
71643;BME280;59438;45.014;39.006;2022-08-01T08:16:30;100315.41;;;29.94;57.01
71643;BME280;59438;45.014;39.006;2022-08-01T08:18:56;100317.69;;;29.97;57.14
71643;BME280;59438;45.014;39.006;2022-08-01T08:21:22;100320.69;;;30.02;56.57
71643;BME280;59438;45.014;39.006;2022-08-01T08:23:49;100321.75;;;30.08;56.71
71643;BME280;59438;45.014;39.006;2022-08-01T08:26:15;100326.78;;;30.11;56.69
71643;BME280;59438;45.014;39.006;2022-08-01T08:28:42;100313.50;;;30.16;56.29
71643;BME280;59438;45.014;39.006;2022-08-01T08:31:09;100317.31;;;30.22;56.14
71643;BME280;59438;45.014;39.006;2022-08-01T08:33:37;100316.72;;;30.26;55.83
71643;BME280;59438;45.014;39.006;2022-08-01T08:36:04;100314.31;;;30.31;55.76
71643;BME280;59438;45.014;39.006;2022-08-01T08:38:30;100310.81;;;30.38;55.52
71643;BME280;59438;45.014;39.006;2022-08-01T08:40:57;100307.50;;;30.42;55.49
71643;BME280;59438;45.014;39.006;2022-08-01T08:43:24;100309.44;;;30.48;55.29
71643;BME280;59438;45.014;39.006;2022-08-01T08:45:51;100304.88;;;30.56;55.03
71643;BME280;59438;45.014;39.006;2022-08-01T08:48:18;100302.25;;;30.62;54.78
71643;BME280;59438;45.014;39.006;2022-08-01T08:50:47;100306.66;;;30.70;54.63
71643;BME280;59438;45.014;39.006;2022-08-01T08:53:15;100302.94;;;30.78;54.66
71643;BME280;59438;45.014;39.006;2022-08-01T08:55:42;100303.84;;;30.85;54.51
71643;BME280;59438;45.014;39.006;2022-08-01T08:58:11;100301.00;;;30.93;53.80
71643;BME280;59438;45.014;39.006;2022-08-01T09:00:39;100295.41;;;31.01;53.93
71643;BME280;59438;45.014;39.006;2022-08-01T09:03:05;100300.88;;;31.08;53.61
71643;BME280;59438;45.014;39.006;2022-08-01T09:05:32;100306.13;;;31.16;53.51
71643;BME280;59438;45.014;39.006;2022-08-01T09:08:00;100310.56;;;31.24;53.33
71643;BME280;59438;45.014;39.006;2022-08-01T09:10:26;100309.31;;;31.33;52.63
71643;BME280;59438;45.014;39.006;2022-08-01T09:13:02;100310.19;;;31.40;52.78
71643;BME280;59438;45.014;39.006;2022-08-01T09:15:39;100309.00;;;31.49;52.82
71643;BME280;59438;45.014;39.006;2022-08-01T09:18:05;100314.25;;;31.58;52.41
71643;BME280;59438;45.014;39.006;2022-08-01T09:20:33;100312.16;;;31.66;52.12
71643;BME280;59438;45.014;39.006;2022-08-01T09:23:01;100315.94;;;31.72;51.21
71643;BME280;59438;45.014;39.006;2022-08-01T09:25:27;100316.16;;;31.77;51.51
71643;BME280;59438;45.014;39.006;2022-08-01T09:28:03;100316.19;;;31.84;51.28
71643;BME280;59438;45.014;39.006;2022-08-01T09:30:37;100302.81;;;31.89;51.11
71643;BME280;59438;45.014;39.006;2022-08-01T09:33:04;100302.19;;;31.93;51.01
71643;BME280;59438;45.014;39.006;2022-08-01T09:35:31;100295.97;;;32.00;50.84
71643;BME280;59438;45.014;39.006;2022-08-01T09:38:16;100305.59;;;32.09;50.66
71643;BME280;59438;45.014;39.006;2022-08-01T09:40:49;100306.03;;;32.12;50.24
71643;BME280;59438;45.014;39.006;2022-08-01T09:43:15;100302.69;;;32.17;49.74
71643;BME280;59438;45.014;39.006;2022-08-01T09:45:41;100307.28;;;32.23;49.92
71643;BME280;59438;45.014;39.006;2022-08-01T09:48:09;100307.47;;;32.28;49.64
71643;BME280;59438;45.014;39.006;2022-08-01T09:50:39;100309.16;;;32.36;49.09
71643;BME280;59438;45.014;39.006;2022-08-01T09:53:06;100313.94;;;32.41;49.14
71643;BME280;59438;45.014;39.006;2022-08-01T09:55:34;100318.78;;;32.45;48.70
71643;BME280;59438;45.014;39.006;2022-08-01T09:58:00;100310.19;;;32.48;48.27
71643;BME280;59438;45.014;39.006;2022-08-01T10:00:27;100316.06;;;32.52;48.23
71643;BME280;59438;45.014;39.006;2022-08-01T10:02:54;100317.34;;;32.56;48.31
71643;BME280;59438;45.014;39.006;2022-08-01T10:05:30;100315.88;;;32.60;48.23
71643;BME280;59438;45.014;39.006;2022-08-01T10:07:58;100313.97;;;32.61;46.97
71643;BME280;59438;45.014;39.006;2022-08-01T10:10:26;100313.78;;;32.62;47.00
71643;BME280;59438;45.014;39.006;2022-08-01T10:12:55;100300.19;;;32.62;46.40
71643;BME280;59438;45.014;39.006;2022-08-01T10:15:24;100312.94;;;32.62;46.65
71643;BME280;59438;45.014;39.006;2022-08-01T10:17:53;100311.06;;;32.62;46.39
71643;BME280;59438;45.014;39.006;2022-08-01T10:20:21;100303.94;;;32.61;46.55
71643;BME280;59438;45.014;39.006;2022-08-01T10:22:49;100301.22;;;32.61;46.10
71643;BME280;59438;45.014;39.006;2022-08-01T10:25:18;100303.09;;;32.61;46.10
71643;BME280;59438;45.014;39.006;2022-08-01T10:27:49;100303.94;;;32.61;45.66
71643;BME280;59438;45.014;39.006;2022-08-01T10:30:17;100299.34;;;32.62;45.89
71643;BME280;59438;45.014;39.006;2022-08-01T10:32:46;100297.47;;;32.62;45.73
71643;BME280;59438;45.014;39.006;2022-08-01T10:35:12;100297.03;;;32.65;45.92
71643;BME280;59438;45.014;39.006;2022-08-01T10:37:39;100297.44;;;32.69;45.68
71643;BME280;59438;45.014;39.006;2022-08-01T10:40:07;100299.13;;;32.70;45.58
71643;BME280;59438;45.014;39.006;2022-08-01T10:42:34;100295.75;;;32.75;45.15
71643;BME280;59438;45.014;39.006;2022-08-01T10:45:01;100293.66;;;32.77;45.53
71643;BME280;59438;45.014;39.006;2022-08-01T10:47:37;100295.94;;;32.80;44.99
71643;BME280;59438;45.014;39.006;2022-08-01T10:50:13;100298.88;;;32.85;45.34
71643;BME280;59438;45.014;39.006;2022-08-01T10:52:41;100299.72;;;32.85;45.20
71643;BME280;59438;45.014;39.006;2022-08-01T10:55:08;100302.22;;;32.87;45.03
71643;BME280;59438;45.014;39.006;2022-08-01T10:57:45;100300.13;;;32.89;44.46
71643;BME280;59438;45.014;39.006;2022-08-01T11:00:16;100291.09;;;32.88;44.22
71643;BME280;59438;45.014;39.006;2022-08-01T11:02:58;100292.19;;;32.87;44.14
71643;BME280;59438;45.014;39.006;2022-08-01T11:05:25;100301.38;;;32.86;44.53
71643;BME280;59438;45.014;39.006;2022-08-01T11:07:53;100302.22;;;32.87;44.45
71643;BME280;59438;45.014;39.006;2022-08-01T11:10:25;100297.63;;;32.87;44.72
71643;BME280;59438;45.014;39.006;2022-08-01T11:12:56;100286.72;;;32.87;45.00
71643;BME280;59438;45.014;39.006;2022-08-01T11:15:23;100291.97;;;32.89;45.19
71643;BME280;59438;45.014;39.006;2022-08-01T11:17:52;100292.34;;;32.92;44.68
71643;BME280;59438;45.014;39.006;2022-08-01T11:20:19;100283.16;;;32.93;45.36
71643;BME280;59438;45.014;39.006;2022-08-01T11:26:07;100292.53;;;33.04;44.88
71643;BME280;59438;45.014;39.006;2022-08-01T11:28:34;100287.28;;;33.03;44.59
71643;BME280;59438;45.014;39.006;2022-08-01T11:31:25;100291.50;;;33.05;44.78
71643;BME280;59438;45.014;39.006;2022-08-01T11:33:53;100285.19;;;33.05;44.94
71643;BME280;59438;45.014;39.006;2022-08-01T11:36:19;100270.56;;;33.06;44.26
71643;BME280;59438;45.014;39.006;2022-08-01T11:38:47;100262.41;;;33.06;44.82
71643;BME280;59438;45.014;39.006;2022-08-01T11:41:15;100255.50;;;33.10;45.05
71643;BME280;59438;45.014;39.006;2022-08-01T11:43:55;100267.84;;;33.12;44.65
71643;BME280;59438;45.014;39.006;2022-08-01T11:46:45;100281.22;;;33.14;43.78
71643;BME280;59438;45.014;39.006;2022-08-01T11:49:28;100281.66;;;33.11;43.20
71643;BME280;59438;45.014;39.006;2022-08-01T11:52:01;100299.66;;;33.05;43.71
71643;BME280;59438;45.014;39.006;2022-08-01T11:54:28;100286.69;;;33.01;44.59
71643;BME280;59438;45.014;39.006;2022-08-01T11:56:56;100295.06;;;32.99;44.40
71643;BME280;59438;45.014;39.006;2022-08-01T11:59:22;100282.09;;;32.95;44.11
71643;BME280;59438;45.014;39.006;2022-08-01T12:01:49;100265.38;;;32.91;44.45
71643;BME280;59438;45.014;39.006;2022-08-01T12:04:15;100274.16;;;32.86;44.96
71643;BME280;59438;45.014;39.006;2022-08-01T12:06:43;100283.81;;;32.82;44.83
71643;BME280;59438;45.014;39.006;2022-08-01T12:09:19;100284.44;;;32.78;44.22
71643;BME280;59438;45.014;39.006;2022-08-01T12:11:47;100279.03;;;32.71;44.42
71643;BME280;59438;45.014;39.006;2022-08-01T12:14:19;100281.78;;;32.64;44.10
71643;BME280;59438;45.014;39.006;2022-08-01T12:16:53;100270.06;;;32.57;44.76
71643;BME280;59438;45.014;39.006;2022-08-01T12:19:21;100262.72;;;32.51;44.62
71643;BME280;59438;45.014;39.006;2022-08-01T12:22:09;100265.06;;;32.47;44.68
71643;BME280;59438;45.014;39.006;2022-08-01T12:24:36;100275.06;;;32.40;45.44
71643;BME280;59438;45.014;39.006;2022-08-01T12:27:04;100275.28;;;32.39;45.73
71643;BME280;59438;45.014;39.006;2022-08-01T12:29:32;100290.34;;;32.35;46.04
71643;BME280;59438;45.014;39.006;2022-08-01T12:31:58;100280.09;;;32.30;46.36
71643;BME280;59438;45.014;39.006;2022-08-01T12:34:25;100277.81;;;32.27;46.95
71643;BME280;59438;45.014;39.006;2022-08-01T12:36:51;100269.44;;;32.22;46.92
71643;BME280;59438;45.014;39.006;2022-08-01T12:39:19;100264.03;;;32.15;47.42
71643;BME280;59438;45.014;39.006;2022-08-01T12:41:46;100263.78;;;32.10;47.46
71643;BME280;59438;45.014;39.006;2022-08-01T12:44:13;100254.81;;;32.03;47.85
71643;BME280;59438;45.014;39.006;2022-08-01T12:46:40;100250.41;;;31.95;47.98
71643;BME280;59438;45.014;39.006;2022-08-01T12:49:07;100256.03;;;31.87;48.07